sensor_id;sensor_type;location;lat;lon;timestamp;P1;durP1;ratioP1;P2;durP2;ratioP2
4049;SDS011;2039;50.894;6.888;2023-02-27T00:01:57;67.50;;;5.97;;
4049;SDS011;2039;50.894;6.888;2023-02-27T00:04:23;70.43;;;6.73;;
4049;SDS011;2039;50.894;6.888;2023-02-27T00:06:49;67.57;;;5.77;;
4049;SDS011;2039;50.894;6.888;2023-02-27T00:09:14;69.40;;;6.53;;
4049;SDS011;2039;50.894;6.888;2023-02-27T00:11:40;67.00;;;6.07;;
4049;SDS011;2039;50.894;6.888;2023-02-27T00:14:07;66.50;;;6.22;;
4049;SDS011;2039;50.894;6.888;2023-02-27T00:16:33;67.28;;;6.00;;
4049;SDS011;2039;50.894;6.888;2023-02-27T00:19:02;66.10;;;5.50;;
4049;SDS011;2039;50.894;6.888;2023-02-27T00:21:33;66.07;;;5.80;;
4049;SDS011;2039;50.894;6.888;2023-02-27T00:24:03;66.75;;;6.55;;
4049;SDS011;2039;50.894;6.888;2023-02-27T00:26:35;67.72;;;5.65;;
4049;SDS011;2039;50.894;6.888;2023-02-27T00:29:02;66.25;;;5.90;;
4049;SDS011;2039;50.894;6.888;2023-02-27T00:31:28;67.88;;;6.10;;
4049;SDS011;2039;50.894;6.888;2023-02-27T00:33:54;67.22;;;6.00;;
4049;SDS011;2039;50.894;6.888;2023-02-27T00:36:20;68.80;;;6.10;;
4049;SDS011;2039;50.894;6.888;2023-02-27T00:38:49;69.75;;;5.90;;
4049;SDS011;2039;50.894;6.888;2023-02-27T00:41:14;68.05;;;5.90;;
4049;SDS011;2039;50.894;6.888;2023-02-27T00:43:43;67.70;;;5.55;;
4049;SDS011;2039;50.894;6.888;2023-02-27T00:46:09;70.43;;;6.50;;
4049;SDS011;2039;50.894;6.888;2023-02-27T00:48:37;66.60;;;6.07;;
4049;SDS011;2039;50.894;6.888;2023-02-27T00:51:03;66.80;;;5.85;;
4049;SDS011;2039;50.894;6.888;2023-02-27T00:53:29;66.30;;;6.10;;
4049;SDS011;2039;50.894;6.888;2023-02-27T00:55:58;66.35;;;5.80;;
4049;SDS011;2039;50.894;6.888;2023-02-27T00:58:26;67.20;;;6.00;;
4049;SDS011;2039;50.894;6.888;2023-02-27T01:00:52;66.70;;;6.27;;
4049;SDS011;2039;50.894;6.888;2023-02-27T01:03:18;66.80;;;6.30;;
4049;SDS011;2039;50.894;6.888;2023-02-27T01:05:44;66.20;;;5.63;;
4049;SDS011;2039;50.894;6.888;2023-02-27T01:08:12;67.75;;;6.07;;
4049;SDS011;2039;50.894;6.888;2023-02-27T01:10:38;68.17;;;7.07;;
4049;SDS011;2039;50.894;6.888;2023-02-27T01:13:04;67.90;;;6.33;;
4049;SDS011;2039;50.894;6.888;2023-02-27T01:15:29;66.23;;;5.70;;
4049;SDS011;2039;50.894;6.888;2023-02-27T01:17:57;66.03;;;5.95;;
4049;SDS011;2039;50.894;6.888;2023-02-27T01:20:23;67.25;;;7.15;;
4049;SDS011;2039;50.894;6.888;2023-02-27T01:22:49;67.67;;;5.33;;
4049;SDS011;2039;50.894;6.888;2023-02-27T01:25:15;67.20;;;6.70;;
4049;SDS011;2039;50.894;6.888;2023-02-27T01:27:40;69.10;;;5.97;;
4049;SDS011;2039;50.894;6.888;2023-02-27T01:30:06;66.70;;;6.30;;
4049;SDS011;2039;50.894;6.888;2023-02-27T01:32:36;70.88;;;6.55;;
4049;SDS011;2039;50.894;6.888;2023-02-27T01:35:05;66.28;;;6.07;;
4049;SDS011;2039;50.894;6.888;2023-02-27T01:37:31;66.60;;;6.38;;
4049;SDS011;2039;50.894;6.888;2023-02-27T01:39:57;66.30;;;6.10;;
4049;SDS011;2039;50.894;6.888;2023-02-27T01:42:24;68.63;;;6.87;;
4049;SDS011;2039;50.894;6.888;2023-02-27T01:47:35;68.75;;;6.78;;
4049;SDS011;2039;50.894;6.888;2023-02-27T01:50:16;67.40;;;7.05;;
4049;SDS011;2039;50.894;6.888;2023-02-27T01:52:48;68.30;;;6.47;;
4049;SDS011;2039;50.894;6.888;2023-02-27T01:55:18;69.10;;;6.18;;
4049;SDS011;2039;50.894;6.888;2023-02-27T01:57:45;67.90;;;6.00;;
4049;SDS011;2039;50.894;6.888;2023-02-27T02:00:13;67.32;;;6.80;;
4049;SDS011;2039;50.894;6.888;2023-02-27T02:02:41;70.38;;;7.55;;
4049;SDS011;2039;50.894;6.888;2023-02-27T02:05:11;69.38;;;8.55;;
4049;SDS011;2039;50.894;6.888;2023-02-27T02:07:38;67.60;;;7.20;;
4049;SDS011;2039;50.894;6.888;2023-02-27T02:10:06;68.60;;;7.18;;
4049;SDS011;2039;50.894;6.888;2023-02-27T02:12:36;67.13;;;6.63;;
4049;SDS011;2039;50.894;6.888;2023-02-27T02:15:04;69.35;;;6.95;;
4049;SDS011;2039;50.894;6.888;2023-02-27T02:17:50;69.45;;;6.68;;
4049;SDS011;2039;50.894;6.888;2023-02-27T02:26:34;68.25;;;7.72;;
4049;SDS011;2039;50.894;6.888;2023-02-27T02:41:17;69.57;;;7.30;;
4049;SDS011;2039;50.894;6.888;2023-02-27T02:44:04;68.22;;;7.05;;
4049;SDS011;2039;50.894;6.888;2023-02-27T02:47:05;67.47;;;7.20;;
4049;SDS011;2039;50.894;6.888;2023-02-27T02:49:56;70.95;;;6.95;;
4049;SDS011;2039;50.894;6.888;2023-02-27T02:55:10;67.13;;;7.10;;
4049;SDS011;2039;50.894;6.888;2023-02-27T02:58:18;67.90;;;6.60;;
4049;SDS011;2039;50.894;6.888;2023-02-27T03:01:09;67.22;;;7.22;;
4049;SDS011;2039;50.894;6.888;2023-02-27T03:04:23;73.75;;;7.65;;
4049;SDS011;2039;50.894;6.888;2023-02-27T03:06:29;70.35;;;7.35;;
4049;SDS011;2039;50.894;6.888;2023-02-27T03:08:58;67.32;;;6.93;;
4049;SDS011;2039;50.894;6.888;2023-02-27T03:11:44;67.20;;;6.65;;
4049;SDS011;2039;50.894;6.888;2023-02-27T03:14:27;69.30;;;7.03;;
4049;SDS011;2039;50.894;6.888;2023-02-27T03:16:59;67.70;;;6.30;;
4049;SDS011;2039;50.894;6.888;2023-02-27T03:19:38;66.78;;;6.32;;
4049;SDS011;2039;50.894;6.888;2023-02-27T03:22:11;66.55;;;7.07;;
4049;SDS011;2039;50.894;6.888;2023-02-27T03:24:43;67.22;;;6.80;;
4049;SDS011;2039;50.894;6.888;2023-02-27T03:27:12;70.47;;;6.40;;
4049;SDS011;2039;50.894;6.888;2023-02-27T03:32:41;68.95;;;6.68;;
4049;SDS011;2039;50.894;6.888;2023-02-27T03:35:14;67.10;;;6.57;;
4049;SDS011;2039;50.894;6.888;2023-02-27T03:38:16;67.93;;;7.63;;
4049;SDS011;2039;50.894;6.888;2023-02-27T03:40:50;73.28;;;8.00;;
4049;SDS011;2039;50.894;6.888;2023-02-27T03:43:27;68.35;;;7.05;;
4049;SDS011;2039;50.894;6.888;2023-02-27T03:48:23;67.65;;;6.68;;
4049;SDS011;2039;50.894;6.888;2023-02-27T03:50:49;67.65;;;6.95;;
4049;SDS011;2039;50.894;6.888;2023-02-27T03:53:32;72.30;;;7.03;;
4049;SDS011;2039;50.894;6.888;2023-02-27T03:56:12;67.72;;;6.38;;
4049;SDS011;2039;50.894;6.888;2023-02-27T03:58:40;67.13;;;6.72;;
4049;SDS011;2039;50.894;6.888;2023-02-27T04:01:09;67.10;;;6.53;;
4049;SDS011;2039;50.894;6.888;2023-02-27T04:03:36;66.43;;;6.35;;
4049;SDS011;2039;50.894;6.888;2023-02-27T04:06:13;68.32;;;5.75;;
4049;SDS011;2039;50.894;6.888;2023-02-27T04:09:01;68.50;;;6.78;;
4049;SDS011;2039;50.894;6.888;2023-02-27T04:14:12;67.05;;;7.05;;
4049;SDS011;2039;50.894;6.888;2023-02-27T04:19:36;70.45;;;9.18;;
4049;SDS011;2039;50.894;6.888;2023-02-27T04:27:39;74.38;;;10.93;;
4049;SDS011;2039;50.894;6.888;2023-02-27T04:33:07;71.05;;;13.40;;
4049;SDS011;2039;50.894;6.888;2023-02-27T04:38:15;75.10;;;17.83;;
4049;SDS011;2039;50.894;6.888;2023-02-27T04:41:01;71.55;;;18.45;;
4049;SDS011;2039;50.894;6.888;2023-02-27T04:43:29;76.03;;;19.08;;
4049;SDS011;2039;50.894;6.888;2023-02-27T04:45:58;72.45;;;22.75;;
4049;SDS011;2039;50.894;6.888;2023-02-27T04:48:26;72.30;;;20.33;;
4049;SDS011;2039;50.894;6.888;2023-02-27T04:54:05;70.50;;;18.23;;
4049;SDS011;2039;50.894;6.888;2023-02-27T04:56:46;73.15;;;18.60;;
4049;SDS011;2039;50.894;6.888;2023-02-27T04:59:23;72.78;;;20.58;;
4049;SDS011;2039;50.894;6.888;2023-02-27T05:01:54;73.75;;;20.88;;
4049;SDS011;2039;50.894;6.888;2023-02-27T05:04:24;72.25;;;20.65;;
4049;SDS011;2039;50.894;6.888;2023-02-27T05:06:52;73.07;;;22.75;;
4049;SDS011;2039;50.894;6.888;2023-02-27T05:14:37;73.47;;;17.73;;
4049;SDS011;2039;50.894;6.888;2023-02-27T05:17:20;74.00;;;17.65;;
4049;SDS011;2039;50.894;6.888;2023-02-27T05:20:17;70.22;;;15.48;;
4049;SDS011;2039;50.894;6.888;2023-02-27T05:25:34;74.65;;;18.30;;
4049;SDS011;2039;50.894;6.888;2023-02-27T05:28:06;72.55;;;17.85;;
4049;SDS011;2039;50.894;6.888;2023-02-27T05:30:39;75.53;;;19.85;;
4049;SDS011;2039;50.894;6.888;2023-02-27T05:33:24;71.78;;;17.73;;
4049;SDS011;2039;50.894;6.888;2023-02-27T05:36:10;72.25;;;16.70;;
4049;SDS011;2039;50.894;6.888;2023-02-27T05:38:39;73.68;;;16.23;;
4049;SDS011;2039;50.894;6.888;2023-02-27T05:41:17;72.38;;;17.23;;
4049;SDS011;2039;50.894;6.888;2023-02-27T05:44:00;71.55;;;17.63;;
4049;SDS011;2039;50.894;6.888;2023-02-27T05:46:35;70.10;;;17.73;;
4049;SDS011;2039;50.894;6.888;2023-02-27T05:49:10;71.45;;;18.75;;
4049;SDS011;2039;50.894;6.888;2023-02-27T05:52:02;72.82;;;17.23;;
4049;SDS011;2039;50.894;6.888;2023-02-27T05:57:02;75.10;;;17.77;;
4049;SDS011;2039;50.894;6.888;2023-02-27T06:02:20;74.25;;;17.38;;
4049;SDS011;2039;50.894;6.888;2023-02-27T06:04:46;73.23;;;14.80;;
4049;SDS011;2039;50.894;6.888;2023-02-27T06:07:15;73.37;;;16.97;;
4049;SDS011;2039;50.894;6.888;2023-02-27T06:09:41;74.18;;;16.15;;
4049;SDS011;2039;50.894;6.888;2023-02-27T06:12:11;77.97;;;15.13;;
4049;SDS011;2039;50.894;6.888;2023-02-27T06:14:37;70.70;;;17.43;;
4049;SDS011;2039;50.894;6.888;2023-02-27T06:17:02;72.33;;;18.20;;
4049;SDS011;2039;50.894;6.888;2023-02-27T06:19:28;74.72;;;15.43;;
4049;SDS011;2039;50.894;6.888;2023-02-27T06:21:54;72.73;;;15.77;;
4049;SDS011;2039;50.894;6.888;2023-02-27T06:24:20;71.60;;;16.53;;
4049;SDS011;2039;50.894;6.888;2023-02-27T06:26:46;72.37;;;17.37;;
4049;SDS011;2039;50.894;6.888;2023-02-27T06:29:12;72.80;;;17.53;;
4049;SDS011;2039;50.894;6.888;2023-02-27T06:31:37;82.00;;;18.05;;
4049;SDS011;2039;50.894;6.888;2023-02-27T06:34:03;72.93;;;15.20;;
4049;SDS011;2039;50.894;6.888;2023-02-27T06:36:29;75.47;;;15.80;;
4049;SDS011;2039;50.894;6.888;2023-02-27T06:38:55;71.65;;;14.30;;
4049;SDS011;2039;50.894;6.888;2023-02-27T06:41:22;70.38;;;15.27;;
4049;SDS011;2039;50.894;6.888;2023-02-27T06:43:48;74.65;;;13.90;;
4049;SDS011;2039;50.894;6.888;2023-02-27T06:46:13;73.63;;;14.77;;
4049;SDS011;2039;50.894;6.888;2023-02-27T06:48:39;73.20;;;12.80;;
4049;SDS011;2039;50.894;6.888;2023-02-27T06:51:05;71.30;;;14.53;;
4049;SDS011;2039;50.894;6.888;2023-02-27T06:53:31;87.40;;;16.83;;
4049;SDS011;2039;50.894;6.888;2023-02-27T06:55:57;70.68;;;13.13;;
4049;SDS011;2039;50.894;6.888;2023-02-27T06:58:23;69.70;;;13.63;;
4049;SDS011;2039;50.894;6.888;2023-02-27T07:00:49;70.32;;;14.43;;
4049;SDS011;2039;50.894;6.888;2023-02-27T07:03:15;77.00;;;14.77;;
4049;SDS011;2039;50.894;6.888;2023-02-27T07:05:40;72.80;;;14.00;;
4049;SDS011;2039;50.894;6.888;2023-02-27T07:08:07;71.97;;;16.67;;
4049;SDS011;2039;50.894;6.888;2023-02-27T07:10:33;74.15;;;17.77;;
4049;SDS011;2039;50.894;6.888;2023-02-27T07:12:59;70.07;;;14.73;;
4049;SDS011;2039;50.894;6.888;2023-02-27T07:15:24;69.60;;;14.67;;
4049;SDS011;2039;50.894;6.888;2023-02-27T07:17:50;70.67;;;14.00;;
4049;SDS011;2039;50.894;6.888;2023-02-27T07:20:18;71.78;;;14.68;;
4049;SDS011;2039;50.894;6.888;2023-02-27T07:22:44;73.97;;;15.53;;
4049;SDS011;2039;50.894;6.888;2023-02-27T07:25:09;71.43;;;13.90;;
4049;SDS011;2039;50.894;6.888;2023-02-27T07:27:35;75.33;;;14.90;;
4049;SDS011;2039;50.894;6.888;2023-02-27T07:30:02;75.03;;;16.45;;
4049;SDS011;2039;50.894;6.888;2023-02-27T07:32:28;72.55;;;16.65;;
4049;SDS011;2039;50.894;6.888;2023-02-27T07:34:53;73.33;;;15.57;;
4049;SDS011;2039;50.894;6.888;2023-02-27T07:37:19;73.90;;;14.33;;
4049;SDS011;2039;50.894;6.888;2023-02-27T07:39:45;74.37;;;17.80;;
4049;SDS011;2039;50.894;6.888;2023-02-27T07:42:11;77.40;;;16.20;;
4049;SDS011;2039;50.894;6.888;2023-02-27T07:44:37;70.20;;;17.60;;
4049;SDS011;2039;50.894;6.888;2023-02-27T07:47:03;73.93;;;16.65;;
4049;SDS011;2039;50.894;6.888;2023-02-27T07:49:29;79.13;;;17.87;;
4049;SDS011;2039;50.894;6.888;2023-02-27T07:51:55;71.37;;;16.83;;
4049;SDS011;2039;50.894;6.888;2023-02-27T07:54:21;74.10;;;17.47;;
4049;SDS011;2039;50.894;6.888;2023-02-27T07:56:46;74.50;;;18.17;;
4049;SDS011;2039;50.894;6.888;2023-02-27T07:59:12;70.50;;;16.47;;
4049;SDS011;2039;50.894;6.888;2023-02-27T08:01:38;74.10;;;15.87;;
4049;SDS011;2039;50.894;6.888;2023-02-27T08:04:03;76.00;;;17.73;;
4049;SDS011;2039;50.894;6.888;2023-02-27T08:06:29;71.33;;;14.53;;
4049;SDS011;2039;50.894;6.888;2023-02-27T08:08:55;70.40;;;11.30;;
4049;SDS011;2039;50.894;6.888;2023-02-27T08:11:21;69.27;;;8.43;;
4049;SDS011;2039;50.894;6.888;2023-02-27T08:13:47;66.73;;;7.80;;
4049;SDS011;2039;50.894;6.888;2023-02-27T08:16:14;72.90;;;8.13;;
4049;SDS011;2039;50.894;6.888;2023-02-27T08:18:39;72.07;;;7.67;;
4049;SDS011;2039;50.894;6.888;2023-02-27T08:21:05;69.77;;;8.20;;
4049;SDS011;2039;50.894;6.888;2023-02-27T08:23:31;67.37;;;10.20;;
4049;SDS011;2039;50.894;6.888;2023-02-27T08:25:58;68.38;;;7.40;;
4049;SDS011;2039;50.894;6.888;2023-02-27T08:28:25;73.70;;;15.73;;
4049;SDS011;2039;50.894;6.888;2023-02-27T08:30:51;67.15;;;6.57;;
4049;SDS011;2039;50.894;6.888;2023-02-27T08:33:19;67.47;;;6.47;;
4049;SDS011;2039;50.894;6.888;2023-02-27T08:35:45;67.82;;;5.75;;
4049;SDS011;2039;50.894;6.888;2023-02-27T08:38:14;68.43;;;6.85;;
4049;SDS011;2039;50.894;6.888;2023-02-27T08:40:40;68.93;;;6.60;;
4049;SDS011;2039;50.894;6.888;2023-02-27T08:43:06;66.73;;;5.70;;
4049;SDS011;2039;50.894;6.888;2023-02-27T08:45:31;66.80;;;6.30;;
4049;SDS011;2039;50.894;6.888;2023-02-27T08:47:57;68.53;;;6.23;;
4049;SDS011;2039;50.894;6.888;2023-02-27T08:50:23;68.87;;;6.47;;
4049;SDS011;2039;50.894;6.888;2023-02-27T08:52:49;67.10;;;6.17;;
4049;SDS011;2039;50.894;6.888;2023-02-27T08:55:14;65.10;;;5.77;;
4049;SDS011;2039;50.894;6.888;2023-02-27T08:57:40;65.80;;;5.97;;
4049;SDS011;2039;50.894;6.888;2023-02-27T09:00:06;66.43;;;6.10;;
4049;SDS011;2039;50.894;6.888;2023-02-27T09:02:32;65.70;;;5.55;;
4049;SDS011;2039;50.894;6.888;2023-02-27T09:04:58;65.90;;;5.82;;
4049;SDS011;2039;50.894;6.888;2023-02-27T09:07:25;66.75;;;6.47;;
4049;SDS011;2039;50.894;6.888;2023-02-27T09:09:50;65.90;;;5.97;;
4049;SDS011;2039;50.894;6.888;2023-02-27T09:12:16;66.43;;;5.80;;
4049;SDS011;2039;50.894;6.888;2023-02-27T09:14:42;67.50;;;5.17;;
4049;SDS011;2039;50.894;6.888;2023-02-27T09:17:08;66.00;;;5.60;;
4049;SDS011;2039;50.894;6.888;2023-02-27T09:19:33;66.17;;;6.20;;
4049;SDS011;2039;50.894;6.888;2023-02-27T09:22:00;67.88;;;5.32;;
4049;SDS011;2039;50.894;6.888;2023-02-27T09:24:26;65.93;;;5.37;;
4049;SDS011;2039;50.894;6.888;2023-02-27T09:26:51;64.80;;;5.37;;
4049;SDS011;2039;50.894;6.888;2023-02-27T09:29:17;65.77;;;5.90;;
4049;SDS011;2039;50.894;6.888;2023-02-27T09:31:43;67.00;;;5.53;;
4049;SDS011;2039;50.894;6.888;2023-02-27T09:34:09;66.13;;;5.50;;
4049;SDS011;2039;50.894;6.888;2023-02-27T09:36:34;65.10;;;5.30;;
4049;SDS011;2039;50.894;6.888;2023-02-27T09:39:00;67.20;;;5.53;;
4049;SDS011;2039;50.894;6.888;2023-02-27T09:44:36;65.88;;;5.65;;
4049;SDS011;2039;50.894;6.888;2023-02-27T09:47:11;69.68;;;6.40;;
4049;SDS011;2039;50.894;6.888;2023-02-27T09:50:03;65.97;;;5.45;;
4049;SDS011;2039;50.894;6.888;2023-02-27T09:52:45;67.72;;;6.28;;
4049;SDS011;2039;50.894;6.888;2023-02-27T09:55:12;68.47;;;5.70;;
4049;SDS011;2039;50.894;6.888;2023-02-27T09:57:46;65.00;;;4.45;;
4049;SDS011;2039;50.894;6.888;2023-02-27T10:05:47;69.40;;;5.32;;
4049;SDS011;2039;50.894;6.888;2023-02-27T10:14:48;66.78;;;4.68;;
4049;SDS011;2039;50.894;6.888;2023-02-27T10:17:03;65.65;;;6.28;;
4049;SDS011;2039;50.894;6.888;2023-02-27T10:19:35;67.13;;;5.20;;
4049;SDS011;2039;50.894;6.888;2023-02-27T10:22:06;65.90;;;5.22;;
4049;SDS011;2039;50.894;6.888;2023-02-27T10:24:39;70.53;;;5.70;;
4049;SDS011;2039;50.894;6.888;2023-02-27T10:27:16;67.50;;;5.00;;
4049;SDS011;2039;50.894;6.888;2023-02-27T10:29:44;67.20;;;5.40;;
4049;SDS011;2039;50.894;6.888;2023-02-27T10:32:15;65.55;;;4.55;;
4049;SDS011;2039;50.894;6.888;2023-02-27T10:35:24;66.22;;;4.70;;
4049;SDS011;2039;50.894;6.888;2023-02-27T10:38:45;67.15;;;4.82;;
4049;SDS011;2039;50.894;6.888;2023-02-27T10:41:05;67.53;;;4.57;;
4049;SDS011;2039;50.894;6.888;2023-02-27T10:43:34;68.60;;;5.45;;
4049;SDS011;2039;50.894;6.888;2023-02-27T10:46:01;66.50;;;4.70;;
4049;SDS011;2039;50.894;6.888;2023-02-27T10:48:34;66.22;;;5.00;;
4049;SDS011;2039;50.894;6.888;2023-02-27T10:51:20;66.20;;;4.97;;
4049;SDS011;2039;50.894;6.888;2023-02-27T10:54:06;64.80;;;4.97;;
4049;SDS011;2039;50.894;6.888;2023-02-27T10:56:55;67.47;;;5.00;;
4049;SDS011;2039;50.894;6.888;2023-02-27T10:59:24;68.93;;;4.90;;
4049;SDS011;2039;50.894;6.888;2023-02-27T11:01:58;66.97;;;5.10;;
4049;SDS011;2039;50.894;6.888;2023-02-27T11:07:03;65.47;;;4.80;;
4049;SDS011;2039;50.894;6.888;2023-02-27T11:09:38;65.45;;;4.70;;
4049;SDS011;2039;50.894;6.888;2023-02-27T11:12:11;68.37;;;4.63;;
4049;SDS011;2039;50.894;6.888;2023-02-27T11:14:52;69.90;;;5.07;;
4049;SDS011;2039;50.894;6.888;2023-02-27T11:19:59;66.85;;;4.60;;
4049;SDS011;2039;50.894;6.888;2023-02-27T11:22:27;65.78;;;5.03;;
4049;SDS011;2039;50.894;6.888;2023-02-27T11:27:47;64.13;;;4.32;;
4049;SDS011;2039;50.894;6.888;2023-02-27T11:30:21;64.57;;;3.90;;
4049;SDS011;2039;50.894;6.888;2023-02-27T11:32:57;63.53;;;4.10;;
4049;SDS011;2039;50.894;6.888;2023-02-27T11:35:35;64.57;;;4.35;;
4049;SDS011;2039;50.894;6.888;2023-02-27T11:41:08;65.30;;;5.40;;
4049;SDS011;2039;50.894;6.888;2023-02-27T11:43:39;65.15;;;6.10;;
4049;SDS011;2039;50.894;6.888;2023-02-27T11:46:20;64.85;;;5.68;;
4049;SDS011;2039;50.894;6.888;2023-02-27T11:52:06;65.18;;;5.93;;
4049;SDS011;2039;50.894;6.888;2023-02-27T11:54:56;65.57;;;5.72;;
4049;SDS011;2039;50.894;6.888;2023-02-27T11:58:11;66.47;;;6.13;;
4049;SDS011;2039;50.894;6.888;2023-02-27T12:00:48;65.47;;;5.55;;
4049;SDS011;2039;50.894;6.888;2023-02-27T12:06:41;65.20;;;5.38;;
4049;SDS011;2039;50.894;6.888;2023-02-27T12:09:25;66.28;;;4.85;;
4049;SDS011;2039;50.894;6.888;2023-02-27T12:12:31;64.97;;;4.68;;
4049;SDS011;2039;50.894;6.888;2023-02-27T12:18:27;66.93;;;6.72;;
4049;SDS011;2039;50.894;6.888;2023-02-27T12:21:21;67.15;;;6.40;;
4049;SDS011;2039;50.894;6.888;2023-02-27T12:27:09;65.20;;;5.75;;
4049;SDS011;2039;50.894;6.888;2023-02-27T12:30:09;66.72;;;5.13;;
4049;SDS011;2039;50.894;6.888;2023-02-27T12:36:16;64.57;;;4.38;;
4049;SDS011;2039;50.894;6.888;2023-02-27T12:38:53;66.32;;;4.50;;
4049;SDS011;2039;50.894;6.888;2023-02-27T12:50:42;69.07;;;4.57;;
4049;SDS011;2039;50.894;6.888;2023-02-27T12:56:02;65.13;;;4.32;;
4049;SDS011;2039;50.894;6.888;2023-02-27T13:02:17;63.90;;;3.50;;
4049;SDS011;2039;50.894;6.888;2023-02-27T13:05:00;64.95;;;4.43;;
4049;SDS011;2039;50.894;6.888;2023-02-27T13:07:36;65.70;;;4.40;;
4049;SDS011;2039;50.894;6.888;2023-02-27T13:13:21;64.60;;;4.20;;
4049;SDS011;2039;50.894;6.888;2023-02-27T13:16:17;63.95;;;4.03;;
4049;SDS011;2039;50.894;6.888;2023-02-27T13:22:37;65.18;;;4.65;;
4049;SDS011;2039;50.894;6.888;2023-02-27T13:25:26;66.32;;;4.55;;
4049;SDS011;2039;50.894;6.888;2023-02-27T13:28:01;64.80;;;4.05;;
4049;SDS011;2039;50.894;6.888;2023-02-27T13:30:35;65.43;;;4.25;;
4049;SDS011;2039;50.894;6.888;2023-02-27T13:33:19;67.45;;;3.92;;
4049;SDS011;2039;50.894;6.888;2023-02-27T13:36:14;67.70;;;4.80;;
4049;SDS011;2039;50.894;6.888;2023-02-27T13:39:14;64.75;;;4.75;;
4049;SDS011;2039;50.894;6.888;2023-02-27T13:48:36;69.00;;;5.00;;
4049;SDS011;2039;50.894;6.888;2023-02-27T13:59:25;65.10;;;5.68;;
4049;SDS011;2039;50.894;6.888;2023-02-27T14:02:02;64.88;;;4.85;;
4049;SDS011;2039;50.894;6.888;2023-02-27T14:04:49;65.72;;;3.75;;
4049;SDS011;2039;50.894;6.888;2023-02-27T14:07:46;65.60;;;4.60;;
4049;SDS011;2039;50.894;6.888;2023-02-27T14:10:35;65.85;;;3.95;;
4049;SDS011;2039;50.894;6.888;2023-02-27T14:24:59;65.18;;;4.57;;
4049;SDS011;2039;50.894;6.888;2023-02-27T14:27:43;67.75;;;5.40;;
4049;SDS011;2039;50.894;6.888;2023-02-27T14:33:04;65.30;;;4.97;;
4049;SDS011;2039;50.894;6.888;2023-02-27T14:35:50;64.10;;;4.15;;
4049;SDS011;2039;50.894;6.888;2023-02-27T14:38:25;68.10;;;3.90;;
4049;SDS011;2039;50.894;6.888;2023-02-27T14:40:58;64.90;;;4.43;;
4049;SDS011;2039;50.894;6.888;2023-02-27T14:43:37;65.70;;;4.38;;
4049;SDS011;2039;50.894;6.888;2023-02-27T14:46:22;65.75;;;5.00;;
4049;SDS011;2039;50.894;6.888;2023-02-27T14:48:53;64.80;;;4.47;;
4049;SDS011;2039;50.894;6.888;2023-02-27T14:51:35;72.22;;;5.15;;
4049;SDS011;2039;50.894;6.888;2023-02-27T14:54:27;66.85;;;4.22;;
4049;SDS011;2039;50.894;6.888;2023-02-27T14:57:04;65.28;;;4.50;;
4049;SDS011;2039;50.894;6.888;2023-02-27T14:59:32;67.05;;;5.03;;
4049;SDS011;2039;50.894;6.888;2023-02-27T15:04:48;65.50;;;4.47;;
4049;SDS011;2039;50.894;6.888;2023-02-27T15:07:21;66.53;;;3.88;;
4049;SDS011;2039;50.894;6.888;2023-02-27T15:09:56;66.97;;;4.05;;
4049;SDS011;2039;50.894;6.888;2023-02-27T15:12:39;64.93;;;4.35;;
4049;SDS011;2039;50.894;6.888;2023-02-27T15:15:08;65.88;;;4.22;;
4049;SDS011;2039;50.894;6.888;2023-02-27T15:17:44;67.65;;;4.57;;
4049;SDS011;2039;50.894;6.888;2023-02-27T15:22:57;67.43;;;5.28;;
4049;SDS011;2039;50.894;6.888;2023-02-27T15:25:26;64.60;;;4.57;;
4049;SDS011;2039;50.894;6.888;2023-02-27T15:30:50;69.80;;;4.95;;
4049;SDS011;2039;50.894;6.888;2023-02-27T15:33:27;65.07;;;4.97;;
4049;SDS011;2039;50.894;6.888;2023-02-27T15:35:55;68.68;;;5.57;;
4049;SDS011;2039;50.894;6.888;2023-02-27T15:38:30;67.03;;;5.53;;
4049;SDS011;2039;50.894;6.888;2023-02-27T15:41:01;66.10;;;5.20;;
4049;SDS011;2039;50.894;6.888;2023-02-27T15:43:31;68.30;;;5.32;;
4049;SDS011;2039;50.894;6.888;2023-02-27T15:45:57;67.85;;;5.55;;
4049;SDS011;2039;50.894;6.888;2023-02-27T15:48:24;67.70;;;6.03;;
4049;SDS011;2039;50.894;6.888;2023-02-27T15:50:57;67.38;;;6.50;;
4049;SDS011;2039;50.894;6.888;2023-02-27T15:53:27;66.25;;;5.78;;
4049;SDS011;2039;50.894;6.888;2023-02-27T15:55:58;68.15;;;5.95;;
4049;SDS011;2039;50.894;6.888;2023-02-27T16:01:18;71.45;;;6.45;;
4049;SDS011;2039;50.894;6.888;2023-02-27T16:03:47;71.32;;;5.85;;
4049;SDS011;2039;50.894;6.888;2023-02-27T16:06:22;65.38;;;5.78;;
4049;SDS011;2039;50.894;6.888;2023-02-27T16:08:58;65.57;;;5.85;;
4049;SDS011;2039;50.894;6.888;2023-02-27T16:11:31;66.72;;;6.55;;
4049;SDS011;2039;50.894;6.888;2023-02-27T16:13:59;65.18;;;5.15;;
4049;SDS011;2039;50.894;6.888;2023-02-27T16:16:27;69.40;;;7.95;;
4049;SDS011;2039;50.894;6.888;2023-02-27T16:22:11;67.78;;;6.75;;
4049;SDS011;2039;50.894;6.888;2023-02-27T16:24:39;64.18;;;5.50;;
4049;SDS011;2039;50.894;6.888;2023-02-27T16:27:13;67.18;;;6.60;;
4049;SDS011;2039;50.894;6.888;2023-02-27T16:29:46;65.78;;;5.10;;
4049;SDS011;2039;50.894;6.888;2023-02-27T16:32:35;64.95;;;5.70;;
4049;SDS011;2039;50.894;6.888;2023-02-27T16:35:20;69.78;;;6.13;;
4049;SDS011;2039;50.894;6.888;2023-02-27T16:37:47;66.45;;;5.45;;
4049;SDS011;2039;50.894;6.888;2023-02-27T16:40:18;68.15;;;6.20;;
4049;SDS011;2039;50.894;6.888;2023-02-27T16:42:48;68.15;;;7.20;;
4049;SDS011;2039;50.894;6.888;2023-02-27T16:47:48;69.30;;;8.20;;
4049;SDS011;2039;50.894;6.888;2023-02-27T16:52:48;66.53;;;7.90;;
4049;SDS011;2039;50.894;6.888;2023-02-27T16:55:14;67.87;;;7.80;;
4049;SDS011;2039;50.894;6.888;2023-02-27T16:57:40;68.63;;;8.35;;
4049;SDS011;2039;50.894;6.888;2023-02-27T17:00:06;68.27;;;9.00;;
4049;SDS011;2039;50.894;6.888;2023-02-27T17:02:34;68.63;;;7.75;;
4049;SDS011;2039;50.894;6.888;2023-02-27T17:05:02;66.38;;;6.50;;
4049;SDS011;2039;50.894;6.888;2023-02-27T17:07:29;66.50;;;6.03;;
4049;SDS011;2039;50.894;6.888;2023-02-27T17:09:54;68.30;;;6.73;;
4049;SDS011;2039;50.894;6.888;2023-02-27T17:12:26;71.35;;;7.40;;
4049;SDS011;2039;50.894;6.888;2023-02-27T17:14:52;66.32;;;7.15;;
4049;SDS011;2039;50.894;6.888;2023-02-27T17:17:21;65.90;;;6.35;;
4049;SDS011;2039;50.894;6.888;2023-02-27T17:19:46;65.65;;;5.88;;
4049;SDS011;2039;50.894;6.888;2023-02-27T17:22:12;67.50;;;6.30;;
4049;SDS011;2039;50.894;6.888;2023-02-27T17:24:39;65.03;;;6.25;;
4049;SDS011;2039;50.894;6.888;2023-02-27T17:27:05;68.37;;;6.50;;
4049;SDS011;2039;50.894;6.888;2023-02-27T17:29:31;67.78;;;5.82;;
4049;SDS011;2039;50.894;6.888;2023-02-27T17:31:56;68.10;;;5.70;;
4049;SDS011;2039;50.894;6.888;2023-02-27T17:34:22;66.70;;;5.20;;
4049;SDS011;2039;50.894;6.888;2023-02-27T17:36:48;66.43;;;5.15;;
4049;SDS011;2039;50.894;6.888;2023-02-27T17:39:17;68.17;;;6.40;;
4049;SDS011;2039;50.894;6.888;2023-02-27T17:41:43;66.18;;;5.45;;
4049;SDS011;2039;50.894;6.888;2023-02-27T17:44:12;67.30;;;5.43;;
4049;SDS011;2039;50.894;6.888;2023-02-27T17:46:38;66.45;;;4.93;;
4049;SDS011;2039;50.894;6.888;2023-02-27T17:49:05;67.15;;;5.10;;
4049;SDS011;2039;50.894;6.888;2023-02-27T17:51:31;67.53;;;5.45;;
4049;SDS011;2039;50.894;6.888;2023-02-27T17:54:01;65.95;;;5.32;;
4049;SDS011;2039;50.894;6.888;2023-02-27T17:56:28;71.60;;;5.90;;
4049;SDS011;2039;50.894;6.888;2023-02-27T17:58:55;68.35;;;5.53;;
4049;SDS011;2039;50.894;6.888;2023-02-27T18:01:22;68.45;;;5.95;;
4049;SDS011;2039;50.894;6.888;2023-02-27T18:03:54;68.28;;;6.25;;
4049;SDS011;2039;50.894;6.888;2023-02-27T18:06:25;73.25;;;6.35;;
4049;SDS011;2039;50.894;6.888;2023-02-27T18:08:51;68.93;;;5.50;;
4049;SDS011;2039;50.894;6.888;2023-02-27T18:11:20;66.90;;;5.78;;
4049;SDS011;2039;50.894;6.888;2023-02-27T18:13:46;67.78;;;5.07;;
4049;SDS011;2039;50.894;6.888;2023-02-27T18:16:13;65.50;;;4.43;;
4049;SDS011;2039;50.894;6.888;2023-02-27T18:18:39;67.43;;;5.37;;
4049;SDS011;2039;50.894;6.888;2023-02-27T18:21:11;66.38;;;5.50;;
4049;SDS011;2039;50.894;6.888;2023-02-27T18:23:38;66.60;;;4.72;;